NKS3170 KFLL-KMSY
Flight info
| Callsign | NKS3170 |
|---|---|
| Flight time | N/A |
| Altitude | 36000 |
| Route | BNICE2 DOLIE Y280 REDFN Q105 HRV |
| Aircraft | A21N/M-SDE2E3FGHIRWXY/LB1 |
Departure
| Time | 2026-05-04 01:25 |
|---|---|
| Airport | Fort Lauderdale Hollywood International Airport (KFLL) |
Arrival
| Time | N/A |
|---|---|
| Airport | Louis Armstrong New Orleans International Airport (KMSY) |
| Time | Latitude | Longitude | Altitude | Speed | Heading |
|---|---|---|---|---|---|
| 2026-05-04 00:52 | 26.06883 | -80.14515 | 20 ft | 0 kts | 4° |
| 2026-05-04 01:13 | 26.06859 | -80.14517 | 22 ft | 4 kts | 1° |
| 2026-05-04 01:13 | 26.06832 | -80.14517 | 21 ft | 4 kts | 355° |
| 2026-05-04 01:14 | 26.06805 | -80.14512 | 22 ft | 4 kts | 339° |
| 2026-05-04 01:14 | 26.06788 | -80.14502 | 21 ft | 0 kts | 315° |
| 2026-05-04 01:16 | 26.06812 | -80.14540 | 19 ft | 16 kts | 301° |
| 2026-05-04 01:17 | 26.06876 | -80.14657 | 21 ft | 16 kts | 315° |
| 2026-05-04 01:17 | 26.06955 | -80.14727 | 22 ft | 14 kts | 331° |
| 2026-05-04 01:17 | 26.07026 | -80.14794 | 22 ft | 13 kts | 316° |
| 2026-05-04 01:17 | 26.07096 | -80.14851 | 23 ft | 12 kts | 343° |
| 2026-05-04 01:18 | 26.07170 | -80.14854 | 26 ft | 12 kts | 360° |
| 2026-05-04 01:18 | 26.07264 | -80.14854 | 27 ft | 17 kts | 360° |
| 2026-05-04 01:18 | 26.07373 | -80.14884 | 25 ft | 14 kts | 307° |
| 2026-05-04 01:18 | 26.07410 | -80.14957 | 25 ft | 10 kts | 314° |
| 2026-05-04 01:19 | 26.07459 | -80.15011 | 25 ft | 11 kts | 315° |
| 2026-05-04 01:19 | 26.07522 | -80.15080 | 26 ft | 16 kts | 314° |
| 2026-05-04 01:19 | 26.07562 | -80.15209 | 20 ft | 20 kts | 271° |
| 2026-05-04 01:19 | 26.07567 | -80.15360 | 20 ft | 20 kts | 272° |
| 2026-05-04 01:20 | 26.07566 | -80.15511 | 20 ft | 19 kts | 269° |
| 2026-05-04 01:20 | 26.07565 | -80.15658 | 21 ft | 18 kts | 270° |
| 2026-05-04 01:20 | 26.07566 | -80.15795 | 24 ft | 17 kts | 271° |
| 2026-05-04 01:20 | 26.07567 | -80.15922 | 26 ft | 16 kts | 270° |
| 2026-05-04 01:21 | 26.07567 | -80.16048 | 28 ft | 16 kts | 270° |
| 2026-05-04 01:21 | 26.07567 | -80.16176 | 29 ft | 16 kts | 270° |
| 2026-05-04 01:21 | 26.07569 | -80.16301 | 29 ft | 16 kts | 271° |
| 2026-05-04 01:21 | 26.07570 | -80.16428 | 28 ft | 17 kts | 270° |
| 2026-05-04 01:22 | 26.07571 | -80.16559 | 27 ft | 15 kts | 279° |
| 2026-05-04 01:22 | 26.07590 | -80.16630 | 26 ft | 0 kts | 311° |
| 2026-05-04 01:22 | 26.07590 | -80.16631 | 26 ft | 0 kts | 311° |
| 2026-05-04 01:23 | 26.07591 | -80.16632 | 26 ft | 0 kts | 311° |
| 2026-05-04 01:23 | 26.07594 | -80.16635 | 27 ft | 2 kts | 311° |
| 2026-05-04 01:24 | 26.07601 | -80.16640 | 26 ft | 2 kts | 345° |
| 2026-05-04 01:24 | 26.07680 | -80.16616 | 25 ft | 14 kts | 52° |
| 2026-05-04 01:24 | 26.07692 | -80.16482 | 27 ft | 39 kts | 91° |
| 2026-05-04 01:24 | 26.07694 | -80.15882 | 27 ft | 117 kts | 89° |
| 2026-05-04 01:25 | 26.07693 | -80.14685 | 28 ft | 188 kts | 89° |
| 2026-05-04 01:25 | 26.07711 | -80.13131 | 474 ft | 209 kts | 88° |
| 2026-05-04 01:25 | 26.07802 | -80.11408 | 921 ft | 242 kts | 81° |
| 2026-05-04 01:25 | 26.08168 | -80.09499 | 1648 ft | 254 kts | 73° |
| 2026-05-04 01:26 | 26.08831 | -80.07676 | 2464 ft | 259 kts | 53° |
| 2026-05-04 01:26 | 26.10237 | -80.06423 | 3128 ft | 265 kts | 23° |
| 2026-05-04 01:26 | 26.11983 | -80.05707 | 3863 ft | 270 kts | 15° |
| 2026-05-04 01:26 | 26.13794 | -80.05080 | 4643 ft | 274 kts | 12° |
| 2026-05-04 01:27 | 26.15684 | -80.04833 | 5386 ft | 275 kts | 352° |
| 2026-05-04 01:27 | 26.17543 | -80.05300 | 6140 ft | 275 kts | 339° |
| 2026-05-04 01:27 | 26.19357 | -80.06002 | 6917 ft | 277 kts | 336° |
| 2026-05-04 01:27 | 26.21127 | -80.06846 | 7679 ft | 276 kts | 325° |
| 2026-05-04 01:28 | 26.22557 | -80.08232 | 8488 ft | 271 kts | 302° |
| 2026-05-04 01:28 | 26.23442 | -80.10056 | 9341 ft | 268 kts | 290° |
| 2026-05-04 01:28 | 26.24137 | -80.11983 | 10164 ft | 270 kts | 288° |
| 2026-05-04 01:28 | 26.24826 | -80.13992 | 10608 ft | 287 kts | 288° |
| 2026-05-04 01:29 | 26.25460 | -80.16173 | 10902 ft | 305 kts | 281° |
| 2026-05-04 01:29 | 26.25868 | -80.18556 | 11164 ft | 323 kts | 277° |
| 2026-05-04 01:29 | 26.26225 | -80.21091 | 11425 ft | 339 kts | 277° |
| 2026-05-04 01:29 | 26.26590 | -80.23738 | 11705 ft | 352 kts | 277° |
| 2026-05-04 01:30 | 26.26971 | -80.26466 | 12128 ft | 359 kts | 277° |
| 2026-05-04 01:30 | 26.27360 | -80.29226 | 12669 ft | 362 kts | 277° |
| 2026-05-04 01:30 | 26.27754 | -80.32010 | 13225 ft | 365 kts | 277° |
| 2026-05-04 01:30 | 26.28152 | -80.34813 | 13765 ft | 367 kts | 277° |
| 2026-05-04 01:31 | 26.28551 | -80.37629 | 14262 ft | 370 kts | 277° |
| 2026-05-04 01:31 | 26.28953 | -80.40464 | 14742 ft | 371 kts | 277° |
| 2026-05-04 01:31 | 26.29356 | -80.43313 | 15239 ft | 373 kts | 277° |
| 2026-05-04 01:31 | 26.29761 | -80.46176 | 15733 ft | 375 kts | 276° |
| 2026-05-04 01:32 | 26.30166 | -80.49047 | 16219 ft | 376 kts | 276° |
| 2026-05-04 01:32 | 26.30573 | -80.51936 | 16686 ft | 378 kts | 276° |
| 2026-05-04 01:32 | 26.31224 | -80.56564 | 17483 ft | 377 kts | 276° |
| 2026-05-04 01:32 | 26.32035 | -80.62341 | 18310 ft | 378 kts | 276° |
| 2026-05-04 01:33 | 26.32837 | -80.68080 | 18870 ft | 382 kts | 275° |
| 2026-05-04 01:33 | 26.33654 | -80.73942 | 19427 ft | 383 kts | 275° |
| 2026-05-04 01:33 | 26.34473 | -80.79833 | 19938 ft | 386 kts | 275° |
| 2026-05-04 01:33 | 26.35298 | -80.85759 | 20437 ft | 388 kts | 276° |
| 2026-05-04 01:34 | 26.36846 | -80.91585 | 20943 ft | 399 kts | 290° |
| 2026-05-04 01:34 | 26.40093 | -80.96724 | 21458 ft | 417 kts | 307° |
| 2026-05-04 01:34 | 26.44347 | -81.01209 | 21966 ft | 422 kts | 309° |
| 2026-05-04 01:34 | 26.51801 | -81.09020 | 22943 ft | 427 kts | 309° |
| 2026-05-04 01:35 | 26.60494 | -81.18183 | 24153 ft | 432 kts | 308° |
| 2026-05-04 01:35 | 26.69239 | -81.27453 | 25460 ft | 435 kts | 308° |
| 2026-05-04 01:35 | 26.78023 | -81.36797 | 26873 ft | 435 kts | 308° |
| 2026-05-04 01:35 | 26.86735 | -81.46087 | 28415 ft | 429 kts | 308° |
| 2026-05-04 01:36 | 26.95320 | -81.55263 | 30023 ft | 424 kts | 307° |
| 2026-05-04 01:36 | 27.03811 | -81.64364 | 31179 ft | 422 kts | 307° |
| 2026-05-04 01:36 | 27.12234 | -81.73406 | 32399 ft | 418 kts | 306° |
| 2026-05-04 01:36 | 27.20618 | -81.82428 | 33471 ft | 416 kts | 305° |
| 2026-05-04 01:37 | 27.25721 | -81.88073 | 34193 ft | 406 kts | 299° |
| 2026-05-04 01:37 | 27.28622 | -81.93233 | 34670 ft | 380 kts | 283° |
| 2026-05-04 01:37 | 27.30075 | -81.98812 | 35085 ft | 368 kts | 275° |
| 2026-05-04 01:37 | 27.31804 | -82.08180 | 35757 ft | 363 kts | 274° |
| 2026-05-04 01:38 | 27.33862 | -82.19323 | 36067 ft | 365 kts | 274° |
| 2026-05-04 01:38 | 27.37973 | -82.41504 | 36066 ft | 362 kts | 274° |
| 2026-05-04 01:39 | 27.42053 | -82.63590 | 36072 ft | 361 kts | 274° |
| 2026-05-04 01:39 | 27.46169 | -82.85672 | 36063 ft | 358 kts | 274° |
| 2026-05-04 01:40 | 27.50208 | -83.07591 | 36069 ft | 358 kts | 274° |
| 2026-05-04 01:40 | 27.54200 | -83.29433 | 36070 ft | 353 kts | 274° |
| 2026-05-04 01:41 | 27.58132 | -83.51171 | 36075 ft | 354 kts | 274° |
| 2026-05-04 01:41 | 27.62023 | -83.72880 | 36079 ft | 352 kts | 274° |
| 2026-05-04 01:42 | 27.65872 | -83.94554 | 36089 ft | 353 kts | 275° |
| 2026-05-04 01:42 | 27.69689 | -84.16255 | 36082 ft | 353 kts | 275° |
| 2026-05-04 01:43 | 27.73472 | -84.37969 | 36097 ft | 353 kts | 275° |
| 2026-05-04 01:43 | 27.77197 | -84.59560 | 36097 ft | 353 kts | 275° |
| 2026-05-04 01:44 | 27.80919 | -84.81341 | 36097 ft | 354 kts | 276° |
| 2026-05-04 01:44 | 27.84615 | -85.03163 | 36105 ft | 354 kts | 276° |
| 2026-05-04 01:45 | 27.88305 | -85.25072 | 36107 ft | 356 kts | 278° |
| 2026-05-04 01:45 | 27.97921 | -85.57235 | 36113 ft | 360 kts | 283° |
| 2026-05-04 01:46 | 28.04385 | -85.78773 | 36119 ft | 363 kts | 284° |
| 2026-05-04 01:46 | 28.10834 | -86.00401 | 36121 ft | 362 kts | 284° |
| 2026-05-04 01:47 | 28.17245 | -86.22044 | 36124 ft | 362 kts | 284° |
| 2026-05-04 01:47 | 28.23613 | -86.43676 | 36124 ft | 362 kts | 284° |
| 2026-05-04 01:48 | 28.29941 | -86.65315 | 36127 ft | 361 kts | 285° |
| 2026-05-04 01:48 | 28.36270 | -86.86957 | 36126 ft | 363 kts | 285° |
| 2026-05-04 01:49 | 28.42601 | -87.08698 | 36134 ft | 362 kts | 285° |
| 2026-05-04 01:49 | 28.48898 | -87.30470 | 36135 ft | 363 kts | 285° |
| 2026-05-04 01:50 | 28.55142 | -87.52205 | 36134 ft | 361 kts | 286° |
| 2026-05-04 01:50 | 28.60300 | -87.70271 | 36137 ft | 361 kts | 286° |
| 2026-05-04 01:51 | 28.66460 | -87.91978 | 36147 ft | 362 kts | 287° |
| 2026-05-04 01:51 | 28.72655 | -88.13961 | 36144 ft | 364 kts | 287° |
| 2026-05-04 01:52 | 28.75109 | -88.22713 | 36141 ft | 363 kts | 287° |
| 2026-05-04 01:52 | 28.76642 | -88.28191 | 36141 ft | 363 kts | 287° |
| 2026-05-04 01:53 | 28.78172 | -88.33671 | 36149 ft | 363 kts | 287° |
| 2026-05-04 01:53 | 28.79701 | -88.39154 | 36149 ft | 363 kts | 287° |
| 2026-05-04 01:54 | 28.81228 | -88.44639 | 36149 ft | 363 kts | 287° |
| 2026-05-04 01:54 | 28.82750 | -88.50123 | 36145 ft | 362 kts | 288° |
| 2026-05-04 01:55 | 28.84264 | -88.55580 | 36148 ft | 360 kts | 288° |
| 2026-05-04 01:55 | 28.85021 | -88.58312 | 35981 ft | 362 kts | 288° |
| 2026-05-04 01:55 | 28.85780 | -88.61054 | 35749 ft | 363 kts | 288° |
| 2026-05-04 01:56 | 28.86529 | -88.63762 | 35510 ft | 363 kts | 288° |
| 2026-05-04 01:56 | 28.87289 | -88.66513 | 35273 ft | 364 kts | 288° |
| 2026-05-04 01:56 | 28.88227 | -88.69189 | 35035 ft | 364 kts | 296° |
| 2026-05-04 01:56 | 28.89562 | -88.71642 | 34805 ft | 365 kts | 304° |
| 2026-05-04 01:57 | 28.91114 | -88.73940 | 34576 ft | 366 kts | 306° |
| 2026-05-04 01:57 | 28.92740 | -88.76183 | 34350 ft | 367 kts | 307° |
| 2026-05-04 01:57 | 28.94404 | -88.78393 | 34117 ft | 367 kts | 308° |
| 2026-05-04 01:57 | 28.96085 | -88.80591 | 33918 ft | 369 kts | 308° |
| 2026-05-04 01:58 | 28.97783 | -88.82809 | 33657 ft | 373 kts | 308° |